sensor_id;sensor_type;location;lat;lon;timestamp;pressure;altitude;pressure_sealevel;temperature;humidity
34500;BME280;20745;50.882;6.962;2022-09-01T00:00:19;101377.00;;;19.72;66.49
34500;BME280;20745;50.882;6.962;2022-09-01T00:03:19;101380.66;;;19.66;66.87
34500;BME280;20745;50.882;6.962;2022-09-01T00:06:12;101378.19;;;19.58;66.62
34500;BME280;20745;50.882;6.962;2022-09-01T00:09:03;101376.06;;;19.60;66.18
34500;BME280;20745;50.882;6.962;2022-09-01T00:11:52;101382.63;;;19.59;66.55
34500;BME280;20745;50.882;6.962;2022-09-01T00:14:40;101382.44;;;19.54;66.52
34500;BME280;20745;50.882;6.962;2022-09-01T00:17:28;101378.91;;;19.47;67.27
34500;BME280;20745;50.882;6.962;2022-09-01T00:20:17;101387.66;;;19.38;67.99
34500;BME280;20745;50.882;6.962;2022-09-01T00:23:06;101385.56;;;19.33;68.46
34500;BME280;20745;50.882;6.962;2022-09-01T00:25:54;101380.13;;;19.26;69.37
34500;BME280;20745;50.882;6.962;2022-09-01T00:28:42;101383.50;;;19.22;70.70
34500;BME280;20745;50.882;6.962;2022-09-01T00:31:33;101387.75;;;19.18;70.89
34500;BME280;20745;50.882;6.962;2022-09-01T00:34:21;101387.38;;;19.14;70.61
34500;BME280;20745;50.882;6.962;2022-09-01T00:37:09;101379.00;;;19.03;70.99
34500;BME280;20745;50.882;6.962;2022-09-01T00:39:56;101387.81;;;19.05;71.89
34500;BME280;20745;50.882;6.962;2022-09-01T00:42:44;101383.41;;;19.04;71.89
34500;BME280;20745;50.882;6.962;2022-09-01T00:45:31;101377.75;;;18.99;72.82
34500;BME280;20745;50.882;6.962;2022-09-01T00:48:19;101376.53;;;18.95;73.01
34500;BME280;20745;50.882;6.962;2022-09-01T00:51:09;101378.81;;;18.98;71.22
34500;BME280;20745;50.882;6.962;2022-09-01T00:53:58;101372.34;;;18.92;70.06
34500;BME280;20745;50.882;6.962;2022-09-01T00:56:47;101376.53;;;18.95;69.27
34500;BME280;20745;50.882;6.962;2022-09-01T00:59:50;101377.75;;;18.99;68.65
34500;BME280;20745;50.882;6.962;2022-09-01T01:02:40;101369.31;;;19.00;68.55
34500;BME280;20745;50.882;6.962;2022-09-01T01:05:30;101371.03;;;18.95;68.23
34500;BME280;20745;50.882;6.962;2022-09-01T01:08:21;101357.44;;;18.82;67.91
34500;BME280;20745;50.882;6.962;2022-09-01T01:11:14;101363.53;;;18.84;68.22
34500;BME280;20745;50.882;6.962;2022-09-01T01:14:07;101370.53;;;18.80;68.11
34500;BME280;20745;50.882;6.962;2022-09-01T01:16:59;101361.50;;;18.73;68.08
34500;BME280;20745;50.882;6.962;2022-09-01T01:19:54;101369.44;;;18.81;67.94
34500;BME280;20745;50.882;6.962;2022-09-01T01:26:14;101371.59;;;18.72;68.09
34500;BME280;20745;50.882;6.962;2022-09-01T01:29:02;101349.13;;;18.64;68.25
34500;BME280;20745;50.882;6.962;2022-09-01T01:31:49;101363.44;;;18.66;68.01
34500;BME280;20745;50.882;6.962;2022-09-01T01:34:39;101366.56;;;18.76;67.75
34500;BME280;20745;50.882;6.962;2022-09-01T01:37:28;101368.22;;;18.77;68.17
34500;BME280;20745;50.882;6.962;2022-09-01T01:40:18;101364.03;;;18.74;68.04
34500;BME280;20745;50.882;6.962;2022-09-01T01:43:06;101367.41;;;18.70;68.38
34500;BME280;20745;50.882;6.962;2022-09-01T01:45:56;101365.28;;;18.72;68.12
34500;BME280;20745;50.882;6.962;2022-09-01T01:48:49;101374.97;;;18.74;68.16
34500;BME280;20745;50.882;6.962;2022-09-01T01:51:36;101367.81;;;18.73;68.19
34500;BME280;20745;50.882;6.962;2022-09-01T01:54:24;101374.56;;;18.71;68.52
34500;BME280;20745;50.882;6.962;2022-09-01T01:57:13;101362.41;;;18.60;68.76
34500;BME280;20745;50.882;6.962;2022-09-01T02:00:03;101383.84;;;18.63;69.28
34500;BME280;20745;50.882;6.962;2022-09-01T02:02:52;101373.59;;;18.52;69.41
34500;BME280;20745;50.882;6.962;2022-09-01T02:05:39;101385.56;;;18.58;70.18
34500;BME280;20745;50.882;6.962;2022-09-01T02:08:26;101380.53;;;18.55;70.45
34500;BME280;20745;50.882;6.962;2022-09-01T02:11:14;101366.69;;;18.43;70.63
34500;BME280;20745;50.882;6.962;2022-09-01T02:14:05;101377.25;;;18.40;71.23
34500;BME280;20745;50.882;6.962;2022-09-01T02:16:52;101379.75;;;18.41;72.00
34500;BME280;20745;50.882;6.962;2022-09-01T02:19:42;101379.78;;;18.28;71.80
34500;BME280;20745;50.882;6.962;2022-09-01T02:22:29;101374.97;;;18.17;72.69
34500;BME280;20745;50.882;6.962;2022-09-01T02:25:16;101379.78;;;18.22;73.33
34500;BME280;20745;50.882;6.962;2022-09-01T02:28:04;101384.00;;;18.18;74.07
34500;BME280;20745;50.882;6.962;2022-09-01T02:30:55;101372.06;;;18.06;75.41
34500;BME280;20745;50.882;6.962;2022-09-01T02:33:44;101379.00;;;18.02;75.84
34500;BME280;20745;50.882;6.962;2022-09-01T02:36:33;101378.19;;;18.01;76.06
34500;BME280;20745;50.882;6.962;2022-09-01T02:39:29;101368.28;;;18.00;75.38
34500;BME280;20745;50.882;6.962;2022-09-01T02:42:19;101374.34;;;18.09;74.60
34500;BME280;20745;50.882;6.962;2022-09-01T02:45:13;101378.38;;;18.13;74.37
34500;BME280;20745;50.882;6.962;2022-09-01T02:48:04;101378.16;;;18.08;74.44
34500;BME280;20745;50.882;6.962;2022-09-01T02:50:57;101372.50;;;18.03;73.95
34500;BME280;20745;50.882;6.962;2022-09-01T02:53:46;101341.84;;;17.81;74.67
34500;BME280;20745;50.882;6.962;2022-09-01T02:56:36;101377.53;;;17.99;73.89
34500;BME280;20745;50.882;6.962;2022-09-01T02:59:26;101370.22;;;17.87;75.79
34500;BME280;20745;50.882;6.962;2022-09-01T03:02:14;101369.59;;;17.78;75.99
34500;BME280;20745;50.882;6.962;2022-09-01T03:05:02;101373.16;;;17.79;75.86
34500;BME280;20745;50.882;6.962;2022-09-01T03:07:58;101363.03;;;17.86;74.81
34500;BME280;20745;50.882;6.962;2022-09-01T03:10:46;101375.25;;;17.90;75.28
34500;BME280;20745;50.882;6.962;2022-09-01T03:13:34;101378.19;;;17.95;75.20
34500;BME280;20745;50.882;6.962;2022-09-01T03:16:21;101371.88;;;17.94;75.47
34500;BME280;20745;50.882;6.962;2022-09-01T03:19:09;101366.00;;;17.91;75.85
34500;BME280;20745;50.882;6.962;2022-09-01T03:21:58;101378.41;;;17.80;76.79
34500;BME280;20745;50.882;6.962;2022-09-01T03:24:46;101359.09;;;17.69;78.04
34500;BME280;20745;50.882;6.962;2022-09-01T03:27:33;101373.81;;;17.68;79.01
34500;BME280;20745;50.882;6.962;2022-09-01T03:30:20;101371.28;;;17.73;77.77
34500;BME280;20745;50.882;6.962;2022-09-01T03:33:08;101376.13;;;17.71;78.63
34500;BME280;20745;50.882;6.962;2022-09-01T03:35:56;101366.03;;;17.65;77.87
34500;BME280;20745;50.882;6.962;2022-09-01T03:38:48;101370.00;;;17.69;76.98
34500;BME280;20745;50.882;6.962;2022-09-01T03:41:35;101369.41;;;17.67;77.22
34500;BME280;20745;50.882;6.962;2022-09-01T03:44:24;101369.81;;;17.70;76.68
34500;BME280;20745;50.882;6.962;2022-09-01T03:47:11;101366.84;;;17.72;74.73
34500;BME280;20745;50.882;6.962;2022-09-01T03:50:01;101370.22;;;17.74;74.34
34500;BME280;20745;50.882;6.962;2022-09-01T03:52:51;101372.75;;;17.62;76.68
34500;BME280;20745;50.882;6.962;2022-09-01T03:55:40;101364.75;;;17.67;76.61
34500;BME280;20745;50.882;6.962;2022-09-01T03:58:31;101363.13;;;17.47;77.28
34500;BME280;20745;50.882;6.962;2022-09-01T04:01:19;101363.28;;;17.32;79.24
34500;BME280;20745;50.882;6.962;2022-09-01T04:04:06;101348.78;;;17.19;79.76
34500;BME280;20745;50.882;6.962;2022-09-01T04:06:53;101360.13;;;17.22;78.47
34500;BME280;20745;50.882;6.962;2022-09-01T04:09:41;101357.63;;;17.21;79.31
34500;BME280;20745;50.882;6.962;2022-09-01T04:12:30;101358.03;;;17.31;78.31
34500;BME280;20745;50.882;6.962;2022-09-01T04:15:18;101362.44;;;17.32;78.48
34500;BME280;20745;50.882;6.962;2022-09-01T04:18:05;101361.41;;;17.33;78.12
34500;BME280;20745;50.882;6.962;2022-09-01T04:20:58;101370.44;;;17.27;78.15
34500;BME280;20745;50.882;6.962;2022-09-01T04:23:45;101367.06;;;17.18;78.67
34500;BME280;20745;50.882;6.962;2022-09-01T04:26:33;101363.28;;;17.26;78.09
34500;BME280;20745;50.882;6.962;2022-09-01T04:29:21;101366.00;;;17.26;78.38
34500;BME280;20745;50.882;6.962;2022-09-01T04:32:13;101370.22;;;17.22;78.23
34500;BME280;20745;50.882;6.962;2022-09-01T04:35:01;101367.25;;;17.10;78.85
34500;BME280;20745;50.882;6.962;2022-09-01T04:37:50;101359.28;;;17.08;79.72
34500;BME280;20745;50.882;6.962;2022-09-01T04:40:38;101363.28;;;17.13;79.55
34500;BME280;20745;50.882;6.962;2022-09-01T04:43:25;101363.50;;;17.11;79.41
34500;BME280;20745;50.882;6.962;2022-09-01T04:46:14;101359.50;;;17.14;79.78
34500;BME280;20745;50.882;6.962;2022-09-01T04:49:03;101363.88;;;16.95;79.39
34500;BME280;20745;50.882;6.962;2022-09-01T04:51:59;101372.03;;;16.88;80.31
34500;BME280;20745;50.882;6.962;2022-09-01T04:54:46;101356.09;;;16.72;81.45
34500;BME280;20745;50.882;6.962;2022-09-01T04:57:34;101365.91;;;16.60;83.45
34500;BME280;20745;50.882;6.962;2022-09-01T05:00:25;101368.88;;;16.72;81.66
34500;BME280;20745;50.882;6.962;2022-09-01T05:03:13;101373.06;;;16.68;81.40
34500;BME280;20745;50.882;6.962;2022-09-01T05:06:01;101376.41;;;16.70;80.75
34500;BME280;20745;50.882;6.962;2022-09-01T05:08:50;101374.31;;;16.78;81.04
34500;BME280;20745;50.882;6.962;2022-09-01T05:11:39;101372.47;;;16.92;80.19
34500;BME280;20745;50.882;6.962;2022-09-01T05:14:28;101375.25;;;17.05;79.90
34500;BME280;20745;50.882;6.962;2022-09-01T05:17:17;101381.75;;;17.11;79.87
34500;BME280;20745;50.882;6.962;2022-09-01T05:20:06;101376.94;;;17.13;80.63
34500;BME280;20745;50.882;6.962;2022-09-01T05:22:54;101386.59;;;17.15;80.58
34500;BME280;20745;50.882;6.962;2022-09-01T05:25:46;101380.28;;;17.28;79.67
34500;BME280;20745;50.882;6.962;2022-09-01T05:28:35;101380.28;;;17.28;79.06
34500;BME280;20745;50.882;6.962;2022-09-01T05:31:24;101374.41;;;17.18;79.65
34500;BME280;20745;50.882;6.962;2022-09-01T05:34:15;101371.69;;;17.18;80.23
34500;BME280;20745;50.882;6.962;2022-09-01T05:37:07;101385.31;;;17.04;81.93
34500;BME280;20745;50.882;6.962;2022-09-01T05:39:54;101385.56;;;17.23;80.67
34500;BME280;20745;50.882;6.962;2022-09-01T05:42:43;101387.22;;;17.17;80.27
34500;BME280;20745;50.882;6.962;2022-09-01T05:45:30;101393.31;;;17.13;82.48
34500;BME280;20745;50.882;6.962;2022-09-01T05:48:38;101392.88;;;17.02;83.88
34500;BME280;20745;50.882;6.962;2022-09-01T05:51:28;101391.19;;;17.01;85.79
34500;BME280;20745;50.882;6.962;2022-09-01T05:54:32;101395.81;;;17.08;85.97
34500;BME280;20745;50.882;6.962;2022-09-01T05:57:19;101395.81;;;17.08;86.07
34500;BME280;20745;50.882;6.962;2022-09-01T06:00:21;101395.00;;;17.14;84.59
34500;BME280;20745;50.882;6.962;2022-09-01T06:03:10;101391.22;;;17.41;82.98
34500;BME280;20745;50.882;6.962;2022-09-01T06:06:05;101394.19;;;17.59;81.11
34500;BME280;20745;50.882;6.962;2022-09-01T06:08:58;101394.19;;;17.72;80.86
34500;BME280;20745;50.882;6.962;2022-09-01T06:11:46;101390.22;;;17.74;78.47
34500;BME280;20745;50.882;6.962;2022-09-01T06:14:33;101393.97;;;17.86;77.23
34500;BME280;20745;50.882;6.962;2022-09-01T06:17:23;101397.94;;;17.90;77.53
34500;BME280;20745;50.882;6.962;2022-09-01T06:20:12;101396.25;;;18.02;79.01
34500;BME280;20745;50.882;6.962;2022-09-01T06:22:59;101403.81;;;18.07;78.05
34500;BME280;20745;50.882;6.962;2022-09-01T06:25:47;101401.69;;;18.09;74.07
34500;BME280;20745;50.882;6.962;2022-09-01T06:28:34;101406.09;;;18.16;75.19
34500;BME280;20745;50.882;6.962;2022-09-01T06:31:23;101401.66;;;18.22;75.09
34500;BME280;20745;50.882;6.962;2022-09-01T06:34:11;101407.13;;;18.22;74.56
34500;BME280;20745;50.882;6.962;2022-09-01T06:37:04;101412.59;;;18.22;72.88
34500;BME280;20745;50.882;6.962;2022-09-01T06:39:51;101407.13;;;18.22;72.41
34500;BME280;20745;50.882;6.962;2022-09-01T06:42:38;101411.13;;;18.26;71.95
34500;BME280;20745;50.882;6.962;2022-09-01T06:45:26;101406.28;;;18.34;71.98
34500;BME280;20745;50.882;6.962;2022-09-01T06:48:13;101404.59;;;18.40;71.24
34500;BME280;20745;50.882;6.962;2022-09-01T06:51:03;101416.16;;;18.42;70.71
34500;BME280;20745;50.882;6.962;2022-09-01T06:54:08;101414.91;;;18.44;70.35
34500;BME280;20745;50.882;6.962;2022-09-01T06:57:20;101409.59;;;18.49;71.61
34500;BME280;20745;50.882;6.962;2022-09-01T07:00:36;101415.28;;;18.54;70.84
34500;BME280;20745;50.882;6.962;2022-09-01T07:03:28;101410.63;;;18.55;69.95
34500;BME280;20745;50.882;6.962;2022-09-01T07:06:17;101410.41;;;18.56;70.18
34500;BME280;20745;50.882;6.962;2022-09-01T07:09:25;101416.72;;;18.57;68.69
34500;BME280;20745;50.882;6.962;2022-09-01T07:12:32;101423.03;;;18.57;69.78
34500;BME280;20745;50.882;6.962;2022-09-01T07:15:24;101412.72;;;18.66;69.77
34500;BME280;20745;50.882;6.962;2022-09-01T07:18:31;101422.53;;;18.73;70.11
34500;BME280;20745;50.882;6.962;2022-09-01T07:21:20;101422.13;;;18.76;70.01
34500;BME280;20745;50.882;6.962;2022-09-01T07:24:27;101410.34;;;18.69;68.62
34500;BME280;20745;50.882;6.962;2022-09-01T07:27:18;101418.34;;;18.77;69.94
34500;BME280;20745;50.882;6.962;2022-09-01T07:30:11;101417.06;;;18.80;68.95
34500;BME280;20745;50.882;6.962;2022-09-01T07:32:58;101414.25;;;18.86;68.93
34500;BME280;20745;50.882;6.962;2022-09-01T07:36:06;101406.47;;;18.90;68.69
34500;BME280;20745;50.882;6.962;2022-09-01T07:39:15;101408.13;;;18.91;68.14
34500;BME280;20745;50.882;6.962;2022-09-01T07:42:22;101410.66;;;18.92;67.87
34500;BME280;20745;50.882;6.962;2022-09-01T07:45:30;101409.34;;;19.01;68.11
34500;BME280;20745;50.882;6.962;2022-09-01T07:48:18;101412.66;;;19.10;66.85
34500;BME280;20745;50.882;6.962;2022-09-01T07:51:27;101384.50;;;19.03;67.51
34500;BME280;20745;50.882;6.962;2022-09-01T07:54:24;101412.59;;;19.23;67.52
34500;BME280;20745;50.882;6.962;2022-09-01T07:57:11;101412.59;;;19.23;66.55
34500;BME280;20745;50.882;6.962;2022-09-01T07:59:58;101413.19;;;19.25;66.97
34500;BME280;20745;50.882;6.962;2022-09-01T08:02:46;101412.78;;;19.28;66.77
34500;BME280;20745;50.882;6.962;2022-09-01T08:05:34;101405.63;;;19.27;66.88
34500;BME280;20745;50.882;6.962;2022-09-01T08:08:21;101407.66;;;19.38;67.34
34500;BME280;20745;50.882;6.962;2022-09-01T08:11:20;101402.56;;;19.42;66.07
34500;BME280;20745;50.882;6.962;2022-09-01T08:14:28;101410.94;;;19.47;65.79
34500;BME280;20745;50.882;6.962;2022-09-01T08:17:20;101412.38;;;19.56;65.93
34500;BME280;20745;50.882;6.962;2022-09-01T08:20:27;101408.09;;;19.60;65.01
34500;BME280;20745;50.882;6.962;2022-09-01T08:23:18;101408.50;;;19.63;65.82
34500;BME280;20745;50.882;6.962;2022-09-01T08:26:07;101405.56;;;19.65;65.96
34500;BME280;20745;50.882;6.962;2022-09-01T08:28:55;101413.78;;;19.65;64.63
34500;BME280;20745;50.882;6.962;2022-09-01T08:31:45;101415.22;;;19.67;65.08
34500;BME280;20745;50.882;6.962;2022-09-01T08:34:33;101408.50;;;19.63;64.44
34500;BME280;20745;50.882;6.962;2022-09-01T08:37:20;101411.84;;;19.65;65.46
34500;BME280;20745;50.882;6.962;2022-09-01T08:40:11;101409.97;;;19.66;65.77
34500;BME280;20745;50.882;6.962;2022-09-01T08:43:27;101414.16;;;19.68;66.24
34500;BME280;20745;50.882;6.962;2022-09-01T08:46:34;101411.59;;;19.73;67.36
34500;BME280;20745;50.882;6.962;2022-09-01T08:49:24;101400.19;;;19.76;65.59
34500;BME280;20745;50.882;6.962;2022-09-01T08:52:29;101412.06;;;19.88;65.60
34500;BME280;20745;50.882;6.962;2022-09-01T08:55:20;101404.16;;;19.98;65.86
34500;BME280;20745;50.882;6.962;2022-09-01T08:58:14;101406.44;;;20.01;64.95
34500;BME280;20745;50.882;6.962;2022-09-01T09:01:08;101404.47;;;20.08;63.93
34500;BME280;20745;50.882;6.962;2022-09-01T09:07:31;101400.56;;;20.22;63.85
34500;BME280;20745;50.882;6.962;2022-09-01T09:10:25;101390.44;;;20.23;62.86
34500;BME280;20745;50.882;6.962;2022-09-01T09:16:38;101394.22;;;20.40;62.83
34500;BME280;20745;50.882;6.962;2022-09-01T09:22:22;101391.25;;;20.41;62.09
34500;BME280;20745;50.882;6.962;2022-09-01T09:25:12;101390.75;;;20.51;62.53
34500;BME280;20745;50.882;6.962;2022-09-01T09:28:05;101387.28;;;20.55;61.56
34500;BME280;20745;50.882;6.962;2022-09-01T09:34:29;101377.59;;;20.53;62.65
34500;BME280;20745;50.882;6.962;2022-09-01T09:37:26;101371.31;;;20.52;63.64
34500;BME280;20745;50.882;6.962;2022-09-01T09:40:24;101363.19;;;20.57;63.03
34500;BME280;20745;50.882;6.962;2022-09-01T09:43:14;101360.28;;;20.70;63.58
34500;BME280;20745;50.882;6.962;2022-09-01T09:46:42;101358.84;;;20.97;61.49
34500;BME280;20745;50.882;6.962;2022-09-01T09:49:32;101361.16;;;21.12;60.04
34500;BME280;20745;50.882;6.962;2022-09-01T09:52:23;101348.66;;;21.27;57.18
34500;BME280;20745;50.882;6.962;2022-09-01T09:55:21;101350.56;;;21.38;58.35
34500;BME280;20745;50.882;6.962;2022-09-01T09:58:10;101334.69;;;21.40;57.10
34500;BME280;20745;50.882;6.962;2022-09-01T10:03:54;101338.31;;;21.52;57.00
34500;BME280;20745;50.882;6.962;2022-09-01T10:06:43;101337.50;;;21.75;57.44
34500;BME280;20745;50.882;6.962;2022-09-01T10:09:35;101329.00;;;21.88;54.30
34500;BME280;20745;50.882;6.962;2022-09-01T10:12:24;101334.84;;;21.92;54.49
34500;BME280;20745;50.882;6.962;2022-09-01T10:15:15;101337.13;;;21.95;54.75
34500;BME280;20745;50.882;6.962;2022-09-01T10:18:18;101331.13;;;21.98;55.27
34500;BME280;20745;50.882;6.962;2022-09-01T10:21:20;101323.81;;;22.03;54.22
34500;BME280;20745;50.882;6.962;2022-09-01T10:24:19;101320.97;;;22.10;54.37
34500;BME280;20745;50.882;6.962;2022-09-01T10:27:22;101314.59;;;22.21;52.40
34500;BME280;20745;50.882;6.962;2022-09-01T10:30:20;101317.81;;;22.18;52.57
34500;BME280;20745;50.882;6.962;2022-09-01T10:33:09;101315.16;;;22.34;52.88
34500;BME280;20745;50.882;6.962;2022-09-01T10:36:07;101309.00;;;22.44;52.77
34500;BME280;20745;50.882;6.962;2022-09-01T10:38:55;101314.16;;;22.52;52.27
34500;BME280;20745;50.882;6.962;2022-09-01T10:41:55;101306.19;;;22.67;53.14
34500;BME280;20745;50.882;6.962;2022-09-01T10:44:57;101307.84;;;22.68;51.77
34500;BME280;20745;50.882;6.962;2022-09-01T10:47:44;101301.19;;;22.64;51.95
34500;BME280;20745;50.882;6.962;2022-09-01T10:50:32;101297.13;;;22.55;53.82
34500;BME280;20745;50.882;6.962;2022-09-01T10:53:43;101305.31;;;22.50;54.05
34500;BME280;20745;50.882;6.962;2022-09-01T10:56:45;101286.63;;;22.52;52.50
34500;BME280;20745;50.882;6.962;2022-09-01T10:59:37;101295.06;;;22.62;52.49
34500;BME280;20745;50.882;6.962;2022-09-01T11:02:36;101298.00;;;22.72;51.61
34500;BME280;20745;50.882;6.962;2022-09-01T11:09:02;101290.38;;;22.90;51.42
34500;BME280;20745;50.882;6.962;2022-09-01T11:18:10;101296.09;;;23.17;51.09
34500;BME280;20745;50.882;6.962;2022-09-01T11:21:22;101303.47;;;23.28;50.17
34500;BME280;20745;50.882;6.962;2022-09-01T11:30:45;101289.34;;;23.57;50.89
34500;BME280;20745;50.882;6.962;2022-09-01T11:33:58;101288.38;;;23.68;49.99
34500;BME280;20745;50.882;6.962;2022-09-01T11:37:12;101292.50;;;23.66;50.10
34500;BME280;20745;50.882;6.962;2022-09-01T11:40:03;101293.56;;;23.65;49.51
34500;BME280;20745;50.882;6.962;2022-09-01T11:42:55;101287.78;;;23.66;49.35
34500;BME280;20745;50.882;6.962;2022-09-01T11:46:29;101292.56;;;23.71;49.99
34500;BME280;20745;50.882;6.962;2022-09-01T11:49:34;101294.06;;;23.78;49.99
34500;BME280;20745;50.882;6.962;2022-09-01T11:52:28;101298.72;;;23.78;49.69
34500;BME280;20745;50.882;6.962;2022-09-01T11:55:27;101281.38;;;23.61;50.01
34500;BME280;20745;50.882;6.962;2022-09-01T12:01:55;101277.50;;;23.62;50.96
34500;BME280;20745;50.882;6.962;2022-09-01T12:04:33;101277.50;;;23.62;50.69
34500;BME280;20745;50.882;6.962;2022-09-01T12:07:29;101270.78;;;23.53;50.20
34500;BME280;20745;50.882;6.962;2022-09-01T12:10:36;101267.88;;;23.43;50.09
34500;BME280;20745;50.882;6.962;2022-09-01T12:13:24;101263.41;;;23.42;50.54
34500;BME280;20745;50.882;6.962;2022-09-01T12:16:20;101263.16;;;23.43;51.09
34500;BME280;20745;50.882;6.962;2022-09-01T12:19:07;101259.75;;;23.53;51.22
34500;BME280;20745;50.882;6.962;2022-09-01T12:22:17;101253.78;;;23.61;51.08
34500;BME280;20745;50.882;6.962;2022-09-01T12:25:06;101254.22;;;23.53;50.81
34500;BME280;20745;50.882;6.962;2022-09-01T12:27:54;101250.22;;;23.44;50.33
34500;BME280;20745;50.882;6.962;2022-09-01T12:30:41;101251.84;;;23.40;49.87
34500;BME280;20745;50.882;6.962;2022-09-01T12:33:31;101246.22;;;23.35;50.32
34500;BME280;20745;50.882;6.962;2022-09-01T12:39:17;101246.16;;;23.30;50.38
34500;BME280;20745;50.882;6.962;2022-09-01T12:45:08;101231.19;;;23.80;50.26
34500;BME280;20745;50.882;6.962;2022-09-01T12:47:56;101241.78;;;24.10;49.12
34500;BME280;20745;50.882;6.962;2022-09-01T12:50:44;101242.34;;;24.34;49.70
34500;BME280;20745;50.882;6.962;2022-09-01T12:53:33;101244.38;;;24.65;49.61
34500;BME280;20745;50.882;6.962;2022-09-01T12:59:21;101222.38;;;25.11;47.96
34500;BME280;20745;50.882;6.962;2022-09-01T13:02:33;101225.91;;;25.33;47.39
34500;BME280;20745;50.882;6.962;2022-09-01T13:05:28;101227.88;;;25.38;45.63
34500;BME280;20745;50.882;6.962;2022-09-01T13:08:28;101235.22;;;25.22;46.68
34500;BME280;20745;50.882;6.962;2022-09-01T13:11:17;101216.41;;;24.88;47.27
34500;BME280;20745;50.882;6.962;2022-09-01T13:14:07;101228.28;;;24.62;47.92
34500;BME280;20745;50.882;6.962;2022-09-01T13:16:55;101224.72;;;24.40;48.32
34500;BME280;20745;50.882;6.962;2022-09-01T13:19:42;101217.75;;;24.32;49.63
34500;BME280;20745;50.882;6.962;2022-09-01T13:22:29;101220.72;;;24.26;50.04
34500;BME280;20745;50.882;6.962;2022-09-01T13:25:19;101211.53;;;24.20;50.51
34500;BME280;20745;50.882;6.962;2022-09-01T13:28:06;101211.28;;;24.22;50.50
34500;BME280;20745;50.882;6.962;2022-09-01T13:31:00;101204.31;;;24.41;50.52
34500;BME280;20745;50.882;6.962;2022-09-01T13:34:11;101200.72;;;24.67;48.97
34500;BME280;20745;50.882;6.962;2022-09-01T13:37:09;101190.66;;;24.82;46.68
34500;BME280;20745;50.882;6.962;2022-09-01T13:39:56;101193.31;;;25.04;45.83
34500;BME280;20745;50.882;6.962;2022-09-01T13:42:46;101198.16;;;25.23;45.52
34500;BME280;20745;50.882;6.962;2022-09-01T13:45:33;101199.91;;;25.34;45.53
34500;BME280;20745;50.882;6.962;2022-09-01T13:48:22;101194.97;;;25.41;45.79
34500;BME280;20745;50.882;6.962;2022-09-01T13:51:09;101196.66;;;25.42;46.18
34500;BME280;20745;50.882;6.962;2022-09-01T13:54:04;101191.94;;;25.43;46.40
34500;BME280;20745;50.882;6.962;2022-09-01T13:56:52;101191.00;;;25.27;47.08
34500;BME280;20745;50.882;6.962;2022-09-01T13:59:39;101185.44;;;25.22;47.57
34500;BME280;20745;50.882;6.962;2022-09-01T14:02:27;101194.28;;;25.24;47.78
34500;BME280;20745;50.882;6.962;2022-09-01T14:05:17;101190.81;;;25.39;47.17
34500;BME280;20745;50.882;6.962;2022-09-01T14:08:06;101178.97;;;25.48;46.50
34500;BME280;20745;50.882;6.962;2022-09-01T14:10:53;101177.94;;;25.59;46.53
34500;BME280;20745;50.882;6.962;2022-09-01T14:13:41;101180.13;;;25.52;46.60
34500;BME280;20745;50.882;6.962;2022-09-01T14:16:28;101171.78;;;25.47;46.82
34500;BME280;20745;50.882;6.962;2022-09-01T14:19:16;101171.44;;;25.39;46.37
34500;BME280;20745;50.882;6.962;2022-09-01T14:22:03;101179.50;;;25.45;45.96
34500;BME280;20745;50.882;6.962;2022-09-01T14:24:52;101170.13;;;25.46;45.51
34500;BME280;20745;50.882;6.962;2022-09-01T14:27:39;101167.69;;;25.55;44.33
34500;BME280;20745;50.882;6.962;2022-09-01T14:30:28;101168.56;;;25.65;45.05
34500;BME280;20745;50.882;6.962;2022-09-01T14:33:18;101168.50;;;25.55;44.48
34500;BME280;20745;50.882;6.962;2022-09-01T14:36:07;101156.31;;;25.51;44.18
34500;BME280;20745;50.882;6.962;2022-09-01T14:39:01;101165.72;;;25.50;44.70
34500;BME280;20745;50.882;6.962;2022-09-01T14:41:48;101164.34;;;25.53;44.72
34500;BME280;20745;50.882;6.962;2022-09-01T14:44:36;101160.19;;;25.50;44.84
34500;BME280;20745;50.882;6.962;2022-09-01T14:47:24;101161.84;;;25.51;44.05
34500;BME280;20745;50.882;6.962;2022-09-01T14:50:12;101162.38;;;25.48;43.47
34500;BME280;20745;50.882;6.962;2022-09-01T14:53:03;101155.50;;;25.56;44.46
34500;BME280;20745;50.882;6.962;2022-09-01T14:55:50;101149.97;;;25.56;43.33
34500;BME280;20745;50.882;6.962;2022-09-01T14:58:44;101153.78;;;25.45;43.88
34500;BME280;20745;50.882;6.962;2022-09-01T15:01:33;101142.94;;;25.33;44.36
34500;BME280;20745;50.882;6.962;2022-09-01T15:04:21;101143.00;;;25.43;44.66
34500;BME280;20745;50.882;6.962;2022-09-01T15:07:08;101144.16;;;25.52;44.30
34500;BME280;20745;50.882;6.962;2022-09-01T15:09:56;101140.84;;;25.60;43.16
34500;BME280;20745;50.882;6.962;2022-09-01T15:12:44;101141.72;;;25.66;42.36
34500;BME280;20745;50.882;6.962;2022-09-01T15:15:32;101134.25;;;25.71;42.27
34500;BME280;20745;50.882;6.962;2022-09-01T15:18:19;101130.63;;;25.66;42.75
34500;BME280;20745;50.882;6.962;2022-09-01T15:21:07;101132.25;;;25.52;43.36
34500;BME280;20745;50.882;6.962;2022-09-01T15:23:55;101121.72;;;25.44;44.16
34500;BME280;20745;50.882;6.962;2022-09-01T15:26:43;101118.38;;;25.42;44.01
34500;BME280;20745;50.882;6.962;2022-09-01T15:29:33;101111.69;;;25.33;43.95
34500;BME280;20745;50.882;6.962;2022-09-01T15:32:20;101114.94;;;25.25;44.01
34500;BME280;20745;50.882;6.962;2022-09-01T15:35:14;101116.53;;;25.16;44.84
34500;BME280;20745;50.882;6.962;2022-09-01T15:38:02;101097.44;;;25.09;43.96
34500;BME280;20745;50.882;6.962;2022-09-01T15:40:51;101113.75;;;25.11;44.80
34500;BME280;20745;50.882;6.962;2022-09-01T15:43:45;101112.34;;;25.08;44.98
34500;BME280;20745;50.882;6.962;2022-09-01T15:46:33;101110.09;;;25.05;44.36